Aérodrome :
LOGIN :

S'inscrire | Disclaimer

   EN    FR    IT 

 










Légende :    VFR   VFR Marginal   IFR   IFR Intensif   IFR Très Intensif
Visi : 
Plafond : 
>= 8 km
>= 3000ft
5 à 8 km
1000 à 3000 ft
1500m à 5 km
500 à 1000 ft
800 à 1500m
200 à 500 ft
< 800m
< 200 ft
Symboles :   Orages  Brouillard  Fortes neiges  Fortes précipitations  Vent > 20 kt
SIGMETs :   Divers  Orages  Givrage  Turbulence  Onde Orograph.  Cendres Volcan.






- Altitude de l'aérodrome : 50 ft
- Code IATA : KOI


EGPA - Kirkwall

DERNIER METAR :
  • 150320Z AUTO 24006KT 9999 NCD 03/01 Q0973

METARs EXPIRÉS :
  • 150250Z AUTO 24004KT 9999 NCD 03/01 Q0973
  • 150220Z AUTO 24001KT 9999 NCD 02/01 Q0973
  • 150150Z AUTO 23003KT 9999 NCD 02/01 Q0973
  • 150120Z AUTO 22002KT 9999 NCD 02/M00 Q0973
  • 150050Z AUTO 23003KT 9999 NCD 02/M00 Q0973
  • 150020Z AUTO 23004KT 9999 NCD 02/M01 Q0973

TAF TAF EGPA
Valide du 15 à 03h jusqu'au 15 à 12h UTC


150201Z 1503/1512 20009KT 9999 FEW030
BECMG 1503/1505 29012KT
PROB30
TEMPO 1503/1512 6000 SHRA BKN012



MET'MAP, la Météo Aéronautique d'un coup d'oeil ! - Copyright ORBIFLY Décembre 2007 - Disclaimer

ORBIFLY MET'MAP TEAM :

Programmation & Développement : Alexandra Zaïnal
Sur une idée originale de : Baudouin d'Aumeries
Assistance à la programmation : Marc-Olivier Méhu
Soutien technique & logistique : Manuel Goepfert

Contact : metmap@orbifly.com




SOURCES & CREDITS :

   NOAA